DATE METEO

IERI
Time Temp. Dewp. Hum. Wind dir Wind speed Wind gust Bar. 1h Prec. 24h Prec.
00:08 -0.8 -2.1 90 0 0.3 992.9 0.0000 0.0000
00:18 -0.8 -2.1 90 0 0.8 992.9 0.0000 0.0000
00:28 -0.9 -2.2 90 0 0.3 992.7 0.0000 0.0000
00:38 -0.8 -2.1 90 0 0.3 992.6 0.0000 0.0000
00:48 -0.9 -2.2 90 0 0.3 992.7 0.0000 0.0000
00:58 -0.9 -2.2 90 0 0.3 992.6 0.0000 0.0000
01:18 -0.9 -2.2 90 0 0.3 992.5 0.0000 0.0000
01:28 -0.9 -2.2 90 0 0.8 992.7 0.0000 0.0000
01:39 -1 -2.3 90 0 0.3 992.5 0.0000 0.0000
01:49 -1 -2.3 90 0 0.8 992.6 0.0000 0.0000
01:58 -1.1 -2.4 90 0 0.8 992.7 0.0000 0.0000
02:08 -1 -2.3 90 0 0.3 992.7 0.0000 0.0000
02:19 -1.1 -2.4 90 0 0.3 992.6 0.0000 0.0000
02:29 -1.1 -2.5 89 0 0.8 992.6 0.0000 0.0000
02:38 -1.3 -2.7 89 0 0.3 992.6 0.0000 0.0000
02:49 -1.5 -2.9 89 0 0.3 992.6 0.0000 0.0000
02:59 -1.6 -3 89 270 0.3 1.1 992.6 0.0000 0.0000
03:09 -1.5 -2.8 90 270 0.3 0.8 992.6 0.0000 0.0000
03:19 -1.6 -2.9 90 0 0.8 992.6 0.0000 0.0000
03:29 -1.7 -3 90 270 0.3 1.1 992.7 0.0000 0.0000
03:39 -1.5 -2.8 90 0 0.8 992.6 0.0000 0.0000
03:49 -1.4 -2.7 90 0 0.8 992.7 0.0000 0.0000
03:59 -1.4 -2.7 90 0 0.3 992.7 0.0000 0.0000
04:09 -1.5 -2.8 90 0 0.8 992.6 0.0000 0.0000
04:19 -1.5 -2.8 90 0 0.8 992.7 0.0000 0.0000
04:29 -1.4 -2.5 91 270 0.3 0.8 993 0.0000 0.0000
04:40 -1.2 -2.5 90 232 0.3 1.1 992.9 0.0000 0.0000
04:50 -1.2 -2.5 90 0 0.8 992.9 0.0000 0.0000
04:59 -1.1 -2.4 90 234 0.3 0.8 993.1 0.0000 0.0000
05:10 -1.2 -2.6 89 0 0.3 993.1 0.0000 0.0000
05:20 -1.3 -2.7 89 239 0.3 0.8 993.2 0.0000 0.0000
05:30 -1.6 -3.1 88 0 0.3 993 0.0000 0.0000
05:39 -1.9 -3.4 88 0 0.3 993.1 0.0000 0.0000
05:50 -2.2 -3.7 88 0 0.8 993 0.0000 0.0000
06:00 -2.5 -4 88 270 0.3 0.8 993.2 0.0000 0.0000
06:10 -2.6 -4 89 0 0.8 993.5 0.0000 0.0000
06:20 -2.6 -4 89 225 0.3 1.1 993.4 0.0000 0.0000
06:30 -2.8 -4.2 89 270 0.3 0.8 993.4 0.0000 0.0000
06:40 -2.9 -4.3 89 270 0.3 0.8 993.7 0.0000 0.0000
06:50 -2.9 -4.3 89 303 0.3 0.8 993.9 0.0000 0.0000
07:01 -3.1 -4.5 89 225 0.3 0.8 994 0.0000 0.0000
07:11 -3.4 -4.9 88 0 0.8 993.8 0.0000 0.0000
07:20 -3.7 -5.3 87 0 0.3 993.7 0.0000 0.0000
07:31 -4 -5.6 87 0 0.3 993.5 0.0000 0.0000
07:41 -4.2 -5.7 88 270 0.3 0.8 993.8 0.0000 0.0000
07:51 -4.4 -5.9 88 270 0.3 0.8 993.8 0.0000 0.0000
08:00 -4.6 -6 89 270 0.3 0.8 994.2 0.0000 0.0000
08:11 -4.7 -6.1 89 90 0.3 0.8 994.4 0.0000 0.0000
08:21 -4.8 -6.2 89 225 0.3 0.8 994.7 0.0000 0.0000
08:31 -4.9 -6.4 88 270 0.3 0.8 994.9 0.0000 0.0000
08:41 -4.9 -6.4 88 0 0.3 995.1 0.0000 0.0000
08:51 -4.8 -6.2 89 0 0.8 995 0.0000 0.0000
09:01 -4.6 -6.1 88 0 0.8 995.1 0.0000 0.0000
09:11 -4.4 -5.8 89 0 0.8 994.9 0.0000 0.0000
09:22 -4.1 -5.5 89 0 0.8 995.1 0.0000 0.0000
09:31 -3.8 -5.3 88 0 0.8 995 0.0000 0.0000
09:41 -3.2 -4.6 89 135 0.3 0.8 995 0.0000 0.0000
09:52 -2.3 -3.7 89 0 1.1 994.9 0.0000 0.0000
10:02 -1.3 -2.7 89 0 0.8 994.9 0.1010 0.1000
10:12 -0.7 -2.5 86 0 0.8 994.9 0.1010 0.1000
10:21 -0.3 -2.3 85 0 0.3 994.9 0.2020 0.2000
10:32 0.1 -2 84 0 0.8 995 0.2020 0.2000
10:42 0.3 -2 83 0 0.8 995.4 0.3030 0.3000
10:52 0.6 -1.7 83 0 0.8 995.2 0.3030 0.3000
11:02 0.9 -1.5 83 270 0.3 0.8 995.2 0.2020 0.3000
11:12 0.7 -1.5 84 225 0.3 1.1 995.1 0.2020 0.4000
11:22 0.5 -1.7 84 225 0.3 1.1 995.5 0.3030 0.5000
11:32 0.3 -1.8 84 0 0.8 995.5 0.4040 0.6000
11:43 0.3 -1.7 85 225 0.3 0.8 995.6 0.3030 0.6000
11:52 0.3 -1.7 85 213 0.3 0.8 995.6 0.3030 0.6000
12:02 0.2 -1.8 85 234 0.3 1.1 995.5 0.3030 0.7000
12:12 0.2 -1.8 85 239 0.3 1.1 995.4 0.3030 0.8000
12:23 0.1 -1.9 85 0 0.8 995.4 0.3030 0.8000
12:32 0.1 -1.7 86 0 0.8 995.4 0.3030 0.9000
12:42 0 -1.8 86 225 0.3 1.1 995.2 0.3030 0.9000
12:53 0.1 -1.7 86 225 0.3 1.1 995.2 0.2020 0.9000
13:03 0.1 -1.7 86 270 0.3 0.8 995.1 0.2020 1.0000
13:13 0 -1.8 86 302 0.3 1.1 995.1 0.2020 1.0000
13:23 0.2 -1.6 86 213 0.3 1.1 995 0.2020 1.0000
13:33 0.2 -1.6 86 209 0.3 0.8 995.1 0.1010 1.0000
13:43 0.3 -1.6 86 270 0.3 1.1 995.2 0.1010 1.0000
13:53 0.3 -1.6 86 0 0.8 995.1 0.0000 1.0000
14:04 0.2 -1.8 85 0 0.8 995 0.1010 1.1000
14:13 0.2 -1.8 85 0 1.1 995.1 0.1010 1.1000
14:23 0.3 -1.7 85 0 0.8 995 0.1010 1.1000
14:33 0.3 -1.7 85 0 0.3 995.1 0.2020 1.2000
14:44 0.3 -1.6 86 0 0.8 995.2 0.2020 1.2000
14:53 0.3 -1.7 85 0 1.1 995.2 0.1010 1.2000
15:03 0.3 -1.7 85 0 0.3 995.2 0.1010 1.2000
15:14 0.2 -1.8 85 0 0.8 995.2 0.2020 1.3000
15:24 0.2 -1.9 84 0 0.8 995.1 0.1010 1.3000
15:34 0.1 -1.9 85 0 0.8 995.4 0.1010 1.3000
15:44 0.1 -1.9 85 270 0.3 1.1 995.5 0.1010 1.3000
15:54 0 -2 85 270 0.3 0.8 995.6 0.1010 1.3000
16:04 -0.1 -1.9 86 0 0.3 995.5 0.0000 1.3000
16:14 -0.1 -1.9 86 0 0.3 995.5 0.0000 1.3000
16:25 -0.3 -2.1 86 0 0.8 995.4 0.0000 1.3000
16:34 -0.4 -2.2 86 0 0.8 995.4 0.0000 1.3000
16:44 -0.6 -2.4 86 270 0.3 1.1 995.8 0.1010 1.4000
16:54 -0.7 -2.5 86 270 0.3 0.8 995.8 0.1010 1.4000
17:05 -0.8 -2.5 87 270 0.3 1.1 995.8 0.1010 1.4000
17:14 -0.9 -2.6 87 307 0.3 1.4 995.9 0.1010 1.4000
17:24 -1.1 -2.9 86 15 0.3 1.7 996 0.1010 1.4000
17:35 -1.3 -3.2 85 0 0.3 1.4 996 0.1010 1.4000
17:45 -1.6 -3.7 84 315 0.3 1.4 996.3 0.0000 1.4000
17:55 -2 -4.2 83 338 0.3 1.1 996.3 0.0000 1.4000
18:05 -2.2 -4.4 83 270 0.3 1.4 996.4 0.0000 1.4000
18:15 -2.4 -4.7 82 0 0.3 0.8 996.3 0.0000 1.4000
18:25 -2.5 -4.8 82 15 0.3 1.4 996.6 0.0000 1.4000
18:35 -2.7 -5 82 336 0.3 1.4 996.7 0.0000 1.4000
18:45 -2.9 -5.1 83 11 0.3 1.4 996.6 0.0000 1.4000
18:55 -3.2 -5.4 83 11 0.3 0.8 996.7 0.0000 1.4000
19:05 -3.6 -5.8 83 11 0.3 0.8 996.8 0.0000 1.4000
19:15 -3.8 -6 83 90 0.3 1.4 996.6 0.0000 1.4000
19:26 -4 -6 84 326 0.8 1.4 996.5 0.0000 1.4000
19:35 -4.2 -6.4 83 33 0.3 0.8 996.4 0.0000 1.4000
19:45 -4.4 -6.6 83 330 0.3 1.1 996.5 0.0000 1.4000
19:56 -4.7 -6.7 84 325 0.3 1.4 996.5 0.0000 1.4000
20:06 -4.8 -6.8 84 341 0.3 1.1 996.5 0.0000 1.4000
20:16 -4.9 -7.1 83 45 0.3 1.1 996.4 0.0000 1.4000
20:25 -5.2 -7.2 84 14 0.3 1.1 996.5 0.0000 1.4000
20:36 -5.3 -7.3 84 326 0.3 1.1 996.6 0.0000 1.4000
20:46 -5.5 -7.5 84 335 0.3 1.1 996.5 0.0000 1.4000
20:56 -5.6 -7.6 84 90 0.3 1.1 996.5 0.0000 1.4000
21:06 -5.8 -7.8 84 0 0.3 1.4 996.6 0.0000 1.4000
21:16 -6 -8 84 315 0.3 1.4 996.3 0.0000 1.4000
21:26 -6.1 -8.1 84 351 0.3 1.4 996.4 0.0000 1.4000
21:36 -6.2 -8.1 85 270 0.3 1.4 996.5 0.0000 1.4000
21:47 -6.4 -8.3 85 0.3 1.1 996.5 0.0000 1.4000
21:56 -6.6 -8.5 85 326 0.3 0.8 996.7 0.0000 1.4000
22:06 -6.8 -8.7 85 315 0.3 1.1 997 0.0000 1.4000
22:17 -6.8 -8.7 85 135 0.3 1.1 996.8 0.0000 1.4000
22:27 -7 -8.9 85 90 0.3 0.8 996.8 0.0000 1.4000
22:36 -7.2 -9.1 85 333 0.3 1.1 996.7 0.0000 1.4000
22:46 -7.3 -9.2 85 270 0.3 0.8 997 0.0000 1.4000
22:57 -7.4 -9.3 85 225 0.3 1.1 997.1 0.0000 1.4000
23:07 -7.5 -9.4 85 225 0.3 1.1 997.4 0.0000 1.4000
23:16 -7.6 -9.5 85 180 0.3 0.8 997.2 0.0000 1.4000
23:27 -7.8 -9.6 85 209 0.3 0.8 997.2 0.0000 1.4000
23:37 -8 -9.8 85 270 0.3 1.1 997.2 0.0000 1.4000
23:47 -8.1 -9.9 85 270 0.3 1.1 997.4 0.0000 1.4000
23:57 -8.2 -10 85 30 0.3 0.8 997.3 0.0000

STATISTICILE ZILEI

2021-01-24
TEMPERATURA
MEDIA
-2.4
MAXIM
0.9
11:02
MINIM
-8.2
23:57
PRESIUNEA
MEDIA
994.9
MAXIM
997.4
23:07
MINIM
992.5
01:18
PUNCTUL DE ROUĂ
MEDIA
-4.1
MAXIM
-1.5
11:02
MINIM
-10.0
23:57
UMIDITATEA
MEDIA
87
MAXIM
91
04:29
MINIM
82
18:15
WIND SPEED
MEDIA
0.2
MAXIM
0.8
19:26
WIND GUST
MEDIA
0.9
MAXIM
1.7
17:24
WIND DIRECTION
PREVAILING
W
16.9%
N
8.5
NE
2.1
E
2.8
SE
1.4
S
0.7
SW
13.4
W
16.9
NW
9.9
PRECIPITATION
RAIN HOUR
0.4
RAIN DAY
1.4
TEMPERATURA (°C)
MINIM
-8.2
MAXIM
0.9
MEDIA
-2.4
PRESIUNEA (hpa)
MINIM
992.5
MAXIM
997.4
MEDIA
994.9
STATIA METEO